sensor_id;sensor_type;location;lat;lon;timestamp;pressure;altitude;pressure_sealevel;temperature;humidity
40992;BME280;29633;49.168;9.848;2023-03-12T00:01:16;96476.84;;;4.85;59.30
40992;BME280;29633;49.168;9.848;2023-03-12T00:03:42;96482.00;;;4.85;59.39
40992;BME280;29633;49.168;9.848;2023-03-12T00:06:07;96473.66;;;4.82;59.22
40992;BME280;29633;49.168;9.848;2023-03-12T00:08:33;96470.38;;;4.80;59.31
40992;BME280;29633;49.168;9.848;2023-03-12T00:10:59;96472.13;;;4.79;59.35
40992;BME280;29633;49.168;9.848;2023-03-12T00:13:24;96472.31;;;4.76;59.28
40992;BME280;29633;49.168;9.848;2023-03-12T00:15:50;96478.34;;;4.75;59.30
40992;BME280;29633;49.168;9.848;2023-03-12T00:18:16;96470.75;;;4.74;59.54
40992;BME280;29633;49.168;9.848;2023-03-12T00:20:42;96473.34;;;4.74;59.32
40992;BME280;29633;49.168;9.848;2023-03-12T00:23:07;96469.00;;;4.74;59.40
40992;BME280;29633;49.168;9.848;2023-03-12T00:25:33;96470.84;;;4.72;59.35
40992;BME280;29633;49.168;9.848;2023-03-12T00:27:59;96475.06;;;4.73;59.40
40992;BME280;29633;49.168;9.848;2023-03-12T00:30:25;96477.72;;;4.72;59.44
40992;BME280;29633;49.168;9.848;2023-03-12T00:32:52;96473.50;;;4.71;59.10
40992;BME280;29633;49.168;9.848;2023-03-12T00:35:18;96476.25;;;4.68;59.24
40992;BME280;29633;49.168;9.848;2023-03-12T00:37:44;96480.47;;;4.69;59.34
40992;BME280;29633;49.168;9.848;2023-03-12T00:40:10;96478.75;;;4.69;59.26
40992;BME280;29633;49.168;9.848;2023-03-12T00:42:35;96489.91;;;4.68;59.18
40992;BME280;29633;49.168;9.848;2023-03-12T00:45:01;96487.34;;;4.68;59.24
40992;BME280;29633;49.168;9.848;2023-03-12T00:47:27;96484.50;;;4.73;59.29
40992;BME280;29633;49.168;9.848;2023-03-12T00:49:52;96491.31;;;4.74;59.13
40992;BME280;29633;49.168;9.848;2023-03-12T00:52:18;96479.25;;;4.74;59.41
40992;BME280;29633;49.168;9.848;2023-03-12T00:54:44;96477.63;;;4.73;59.46
40992;BME280;29633;49.168;9.848;2023-03-12T00:57:09;96473.41;;;4.72;59.51
40992;BME280;29633;49.168;9.848;2023-03-12T00:59:35;96471.69;;;4.73;59.32
40992;BME280;29633;49.168;9.848;2023-03-12T01:02:06;96456.28;;;4.73;59.41
40992;BME280;29633;49.168;9.848;2023-03-12T01:04:32;96460.38;;;4.75;59.50
40992;BME280;29633;49.168;9.848;2023-03-12T01:06:57;96461.22;;;4.76;59.43
40992;BME280;29633;49.168;9.848;2023-03-12T01:09:23;96460.50;;;4.74;59.33
40992;BME280;29633;49.168;9.848;2023-03-12T01:11:48;96448.44;;;4.74;59.70
40992;BME280;29633;49.168;9.848;2023-03-12T01:14:14;96464.81;;;4.73;59.46
40992;BME280;29633;49.168;9.848;2023-03-12T01:16:40;96456.16;;;4.74;59.42
40992;BME280;29633;49.168;9.848;2023-03-12T01:19:05;96454.53;;;4.73;59.47
40992;BME280;29633;49.168;9.848;2023-03-12T01:21:31;96450.31;;;4.72;59.31
40992;BME280;29633;49.168;9.848;2023-03-12T01:23:57;96451.97;;;4.73;59.68
40992;BME280;29633;49.168;9.848;2023-03-12T01:26:22;96458.91;;;4.71;59.42
40992;BME280;29633;49.168;9.848;2023-03-12T01:28:48;96448.84;;;4.68;59.72
40992;BME280;29633;49.168;9.848;2023-03-12T01:31:16;96453.91;;;4.70;59.43
40992;BME280;29633;49.168;9.848;2023-03-12T01:33:43;96466.91;;;4.67;59.70
40992;BME280;29633;49.168;9.848;2023-03-12T01:36:31;96463.63;;;4.65;59.75
40992;BME280;29633;49.168;9.848;2023-03-12T01:38:57;96474.91;;;4.62;59.56
40992;BME280;29633;49.168;9.848;2023-03-12T01:41:25;96469.97;;;4.59;59.64
40992;BME280;29633;49.168;9.848;2023-03-12T01:43:51;96475.19;;;4.58;59.51
40992;BME280;29633;49.168;9.848;2023-03-12T01:51:30;96468.59;;;4.54;59.64
40992;BME280;29633;49.168;9.848;2023-03-12T01:53:59;96475.44;;;4.53;59.41
40992;BME280;29633;49.168;9.848;2023-03-12T01:56:27;96469.59;;;4.51;59.79
40992;BME280;29633;49.168;9.848;2023-03-12T01:58:56;96474.81;;;4.50;59.61
40992;BME280;29633;49.168;9.848;2023-03-12T02:01:22;96474.81;;;4.50;59.66
40992;BME280;29633;49.168;9.848;2023-03-12T02:03:51;96469.59;;;4.51;59.55
40992;BME280;29633;49.168;9.848;2023-03-12T02:06:20;96473.00;;;4.52;59.49
40992;BME280;29633;49.168;9.848;2023-03-12T02:08:47;96470.13;;;4.56;59.47
40992;BME280;29633;49.168;9.848;2023-03-12T02:11:13;96476.00;;;4.58;59.74
40992;BME280;29633;49.168;9.848;2023-03-12T02:13:39;96467.41;;;4.59;59.61
40992;BME280;29633;49.168;9.848;2023-03-12T02:16:04;96474.91;;;4.62;59.75
40992;BME280;29633;49.168;9.848;2023-03-12T02:18:32;96461.88;;;4.65;59.64
40992;BME280;29633;49.168;9.848;2023-03-12T02:21:25;96460.03;;;4.67;59.50
40992;BME280;29633;49.168;9.848;2023-03-12T02:23:57;96466.72;;;4.70;59.69
40992;BME280;29633;49.168;9.848;2023-03-12T02:26:25;96461.59;;;4.70;59.58
40992;BME280;29633;49.168;9.848;2023-03-12T02:28:53;96463.06;;;4.74;59.66
40992;BME280;29633;49.168;9.848;2023-03-12T02:31:23;96463.78;;;4.76;59.53
40992;BME280;29633;49.168;9.848;2023-03-12T02:33:49;96470.44;;;4.78;59.79
40992;BME280;29633;49.168;9.848;2023-03-12T02:36:18;96459.28;;;4.79;59.83
40992;BME280;29633;49.168;9.848;2023-03-12T02:38:51;96470.25;;;4.81;59.61
40992;BME280;29633;49.168;9.848;2023-03-12T02:41:21;96471.00;;;4.83;59.75
40992;BME280;29633;49.168;9.848;2023-03-12T02:44:15;96467.41;;;4.86;59.70
40992;BME280;29633;49.168;9.848;2023-03-12T02:46:49;96465.66;;;4.86;59.87
40992;BME280;29633;49.168;9.848;2023-03-12T02:49:16;96462.91;;;4.89;59.75
40992;BME280;29633;49.168;9.848;2023-03-12T02:51:43;96469.69;;;4.90;59.94
40992;BME280;29633;49.168;9.848;2023-03-12T02:54:10;96473.81;;;4.93;59.67
40992;BME280;29633;49.168;9.848;2023-03-12T02:56:36;96472.81;;;4.95;59.64
40992;BME280;29633;49.168;9.848;2023-03-12T02:59:03;96475.28;;;4.97;60.07
40992;BME280;29633;49.168;9.848;2023-03-12T03:01:28;96470.75;;;5.01;59.78
40992;BME280;29633;49.168;9.848;2023-03-12T03:03:54;96472.41;;;5.02;59.78
40992;BME280;29633;49.168;9.848;2023-03-12T03:06:20;96474.88;;;5.03;59.75
40992;BME280;29633;49.168;9.848;2023-03-12T03:08:46;96465.22;;;5.07;59.87
40992;BME280;29633;49.168;9.848;2023-03-12T03:11:11;96468.44;;;5.10;59.81
40992;BME280;29633;49.168;9.848;2023-03-12T03:13:37;96461.34;;;5.14;59.99
40992;BME280;29633;49.168;9.848;2023-03-12T03:16:03;96460.34;;;5.16;59.83
40992;BME280;29633;49.168;9.848;2023-03-12T03:18:29;96448.22;;;5.18;60.00
40992;BME280;29633;49.168;9.848;2023-03-12T03:20:57;96452.44;;;5.19;59.91
40992;BME280;29633;49.168;9.848;2023-03-12T03:23:23;96451.53;;;5.20;59.94
40992;BME280;29633;49.168;9.848;2023-03-12T03:25:49;96448.84;;;5.22;59.80
40992;BME280;29633;49.168;9.848;2023-03-12T03:28:14;96448.84;;;5.22;59.75
40992;BME280;29633;49.168;9.848;2023-03-12T03:30:40;96444.44;;;5.24;59.84
40992;BME280;29633;49.168;9.848;2023-03-12T03:33:05;96452.25;;;5.22;59.82
40992;BME280;29633;49.168;9.848;2023-03-12T03:35:33;96443.63;;;5.23;60.00
40992;BME280;29633;49.168;9.848;2023-03-12T03:37:58;96441.75;;;5.25;60.01
40992;BME280;29633;49.168;9.848;2023-03-12T03:40:24;96442.69;;;5.24;59.95
40992;BME280;29633;49.168;9.848;2023-03-12T03:42:49;96441.75;;;5.25;59.85
40992;BME280;29633;49.168;9.848;2023-03-12T03:45:15;96441.69;;;5.27;60.20
40992;BME280;29633;49.168;9.848;2023-03-12T03:47:42;96434.69;;;5.29;60.14
40992;BME280;29633;49.168;9.848;2023-03-12T03:50:08;96433.69;;;5.31;59.85
40992;BME280;29633;49.168;9.848;2023-03-12T03:52:34;96440.34;;;5.34;59.92
40992;BME280;29633;49.168;9.848;2023-03-12T03:54:59;96437.59;;;5.37;60.10
40992;BME280;29633;49.168;9.848;2023-03-12T03:57:26;96442.50;;;5.40;60.01
40992;BME280;29633;49.168;9.848;2023-03-12T03:59:51;96445.81;;;5.42;59.98
40992;BME280;29633;49.168;9.848;2023-03-12T04:02:17;96443.97;;;5.44;59.99
40992;BME280;29633;49.168;9.848;2023-03-12T04:04:43;96446.44;;;5.45;59.95
40992;BME280;29633;49.168;9.848;2023-03-12T04:07:11;96443.75;;;5.47;59.91
40992;BME280;29633;49.168;9.848;2023-03-12T04:09:37;96440.91;;;5.52;60.04
40992;BME280;29633;49.168;9.848;2023-03-12T04:12:02;96439.16;;;5.52;59.91
40992;BME280;29633;49.168;9.848;2023-03-12T04:14:28;96437.41;;;5.53;60.10
40992;BME280;29633;49.168;9.848;2023-03-12T04:16:55;96442.44;;;5.54;59.81
40992;BME280;29633;49.168;9.848;2023-03-12T04:19:20;96445.75;;;5.56;59.95
40992;BME280;29633;49.168;9.848;2023-03-12T04:21:46;96447.38;;;5.57;59.96
40992;BME280;29633;49.168;9.848;2023-03-12T04:24:13;96448.19;;;5.58;60.10
40992;BME280;29633;49.168;9.848;2023-03-12T04:26:40;96440.28;;;5.61;60.04
40992;BME280;29633;49.168;9.848;2023-03-12T04:29:06;96445.25;;;5.64;59.91
40992;BME280;29633;49.168;9.848;2023-03-12T04:31:31;96437.81;;;5.59;59.84
40992;BME280;29633;49.168;9.848;2023-03-12T04:33:57;96439.47;;;5.60;59.93
40992;BME280;29633;49.168;9.848;2023-03-12T04:36:23;96426.50;;;5.62;59.95
40992;BME280;29633;49.168;9.848;2023-03-12T04:38:49;96422.94;;;5.64;59.97
40992;BME280;29633;49.168;9.848;2023-03-12T04:41:15;96425.28;;;5.67;59.90
40992;BME280;29633;49.168;9.848;2023-03-12T04:43:41;96426.91;;;5.68;60.03
40992;BME280;29633;49.168;9.848;2023-03-12T04:46:07;96429.50;;;5.68;59.94
40992;BME280;29633;49.168;9.848;2023-03-12T04:48:34;96434.97;;;5.64;59.92
40992;BME280;29633;49.168;9.848;2023-03-12T04:50:59;96431.44;;;5.65;60.14
40992;BME280;29633;49.168;9.848;2023-03-12T04:53:25;96427.34;;;5.62;60.06
40992;BME280;29633;49.168;9.848;2023-03-12T04:55:51;96434.00;;;5.65;59.86
40992;BME280;29633;49.168;9.848;2023-03-12T04:58:18;96447.50;;;5.68;59.92
40992;BME280;29633;49.168;9.848;2023-03-12T05:00:44;96445.53;;;5.72;59.95
40992;BME280;29633;49.168;9.848;2023-03-12T05:03:10;96447.09;;;5.74;59.87
40992;BME280;29633;49.168;9.848;2023-03-12T05:05:35;96437.53;;;5.76;59.82
40992;BME280;29633;49.168;9.848;2023-03-12T05:08:02;96445.78;;;5.81;59.90
40992;BME280;29633;49.168;9.848;2023-03-12T05:10:27;96449.97;;;5.82;59.83
40992;BME280;29633;49.168;9.848;2023-03-12T05:12:53;96445.66;;;5.83;60.15
40992;BME280;29633;49.168;9.848;2023-03-12T05:15:19;96435.28;;;5.84;60.04
40992;BME280;29633;49.168;9.848;2023-03-12T05:17:44;96436.00;;;5.86;59.94
40992;BME280;29633;49.168;9.848;2023-03-12T05:20:11;96442.59;;;5.90;60.02
40992;BME280;29633;49.168;9.848;2023-03-12T05:22:39;96438.19;;;5.92;59.77
40992;BME280;29633;49.168;9.848;2023-03-12T05:25:04;96436.34;;;5.94;59.92
40992;BME280;29633;49.168;9.848;2023-03-12T05:27:30;96436.25;;;5.96;60.19
40992;BME280;29633;49.168;9.848;2023-03-12T05:29:56;96435.91;;;6.01;60.09
40992;BME280;29633;49.168;9.848;2023-03-12T05:32:22;96435.91;;;6.01;60.18
40992;BME280;29633;49.168;9.848;2023-03-12T05:34:48;96440.03;;;6.03;60.12
40992;BME280;29633;49.168;9.848;2023-03-12T05:37:13;96448.38;;;6.07;60.17
40992;BME280;29633;49.168;9.848;2023-03-12T05:39:39;96444.75;;;6.09;60.18
40992;BME280;29633;49.168;9.848;2023-03-12T05:42:14;96447.03;;;6.14;60.18
40992;BME280;29633;49.168;9.848;2023-03-12T05:44:40;96454.63;;;6.15;60.21
40992;BME280;29633;49.168;9.848;2023-03-12T05:47:06;96448.34;;;6.19;60.30
40992;BME280;29633;49.168;9.848;2023-03-12T05:49:32;96452.38;;;6.23;60.13
40992;BME280;29633;49.168;9.848;2023-03-12T05:51:57;96451.44;;;6.24;60.19
40992;BME280;29633;49.168;9.848;2023-03-12T05:54:23;96452.88;;;6.28;60.14
40992;BME280;29633;49.168;9.848;2023-03-12T05:56:49;96456.78;;;6.34;60.16
40992;BME280;29633;49.168;9.848;2023-03-12T05:59:15;96448.75;;;6.38;60.09
40992;BME280;29633;49.168;9.848;2023-03-12T06:01:40;96451.09;;;6.41;59.94
40992;BME280;29633;49.168;9.848;2023-03-12T06:04:06;96457.00;;;6.43;60.02
40992;BME280;29633;49.168;9.848;2023-03-12T06:06:33;96458.53;;;6.46;60.20
40992;BME280;29633;49.168;9.848;2023-03-12T06:08:59;96463.56;;;6.48;60.20
40992;BME280;29633;49.168;9.848;2023-03-12T06:11:25;96458.22;;;6.51;60.03
40992;BME280;29633;49.168;9.848;2023-03-12T06:13:50;96456.56;;;6.50;60.05
40992;BME280;29633;49.168;9.848;2023-03-12T06:16:20;96456.56;;;6.50;60.07
40992;BME280;29633;49.168;9.848;2023-03-12T06:18:46;96462.31;;;6.53;60.17
40992;BME280;29633;49.168;9.848;2023-03-12T06:21:20;96463.75;;;6.57;60.12
40992;BME280;29633;49.168;9.848;2023-03-12T06:23:47;96458.47;;;6.59;60.37
40992;BME280;29633;49.168;9.848;2023-03-12T06:26:13;96457.47;;;6.61;60.25
40992;BME280;29633;49.168;9.848;2023-03-12T06:28:39;96456.50;;;6.62;60.11
40992;BME280;29633;49.168;9.848;2023-03-12T06:31:05;96465.81;;;6.65;60.25
40992;BME280;29633;49.168;9.848;2023-03-12T06:33:31;96458.06;;;6.65;60.15
40992;BME280;29633;49.168;9.848;2023-03-12T06:35:58;96450.97;;;6.68;60.21
40992;BME280;29633;49.168;9.848;2023-03-12T06:38:24;96453.41;;;6.70;60.13
40992;BME280;29633;49.168;9.848;2023-03-12T06:40:57;96456.59;;;6.73;60.28
40992;BME280;29633;49.168;9.848;2023-03-12T06:43:24;96461.66;;;6.75;60.31
40992;BME280;29633;49.168;9.848;2023-03-12T06:45:50;96455.66;;;6.74;60.06
40992;BME280;29633;49.168;9.848;2023-03-12T06:48:16;96457.41;;;6.74;60.13
40992;BME280;29633;49.168;9.848;2023-03-12T06:50:42;96450.44;;;6.76;60.04
40992;BME280;29633;49.168;9.848;2023-03-12T06:53:08;96452.06;;;6.77;60.19
40992;BME280;29633;49.168;9.848;2023-03-12T06:55:33;96457.09;;;6.78;60.21
40992;BME280;29633;49.168;9.848;2023-03-12T06:57:59;96456.19;;;6.79;60.34
40992;BME280;29633;49.168;9.848;2023-03-12T07:00:25;96458.75;;;6.79;60.27
40992;BME280;29633;49.168;9.848;2023-03-12T07:02:50;96448.69;;;6.76;60.35
40992;BME280;29633;49.168;9.848;2023-03-12T07:05:16;96447.50;;;6.80;60.45
40992;BME280;29633;49.168;9.848;2023-03-12T07:07:41;96436.19;;;6.83;60.23
40992;BME280;29633;49.168;9.848;2023-03-12T07:10:10;96441.94;;;6.86;60.39
40992;BME280;29633;49.168;9.848;2023-03-12T07:12:35;96444.28;;;6.89;60.21
40992;BME280;29633;49.168;9.848;2023-03-12T07:15:01;96438.22;;;6.90;60.35
40992;BME280;29633;49.168;9.848;2023-03-12T07:17:27;96436.44;;;6.91;60.41
40992;BME280;29633;49.168;9.848;2023-03-12T07:19:52;96436.44;;;6.91;60.38
40992;BME280;29633;49.168;9.848;2023-03-12T07:22:18;96435.50;;;6.92;60.46
40992;BME280;29633;49.168;9.848;2023-03-12T07:24:43;96438.69;;;6.96;60.48
40992;BME280;29633;49.168;9.848;2023-03-12T07:27:09;96442.00;;;6.98;60.44
40992;BME280;29633;49.168;9.848;2023-03-12T07:29:34;96440.13;;;7.00;60.70
40992;BME280;29633;49.168;9.848;2023-03-12T07:32:00;96434.75;;;7.03;60.56
40992;BME280;29633;49.168;9.848;2023-03-12T07:34:26;96441.56;;;7.04;60.60
40992;BME280;29633;49.168;9.848;2023-03-12T07:36:51;96438.88;;;7.05;60.54
40992;BME280;29633;49.168;9.848;2023-03-12T07:39:17;96444.63;;;7.09;60.63
40992;BME280;29633;49.168;9.848;2023-03-12T07:41:43;96437.59;;;7.11;60.53
40992;BME280;29633;49.168;9.848;2023-03-12T07:44:09;96445.94;;;7.14;60.57
40992;BME280;29633;49.168;9.848;2023-03-12T07:46:35;96439.72;;;7.17;60.58
40992;BME280;29633;49.168;9.848;2023-03-12T07:49:00;96446.44;;;7.19;60.51
40992;BME280;29633;49.168;9.848;2023-03-12T07:51:26;96447.47;;;7.17;60.75
40992;BME280;29633;49.168;9.848;2023-03-12T07:53:51;96447.81;;;7.12;60.80
40992;BME280;29633;49.168;9.848;2023-03-12T07:56:17;96459.06;;;7.11;60.86
40992;BME280;29633;49.168;9.848;2023-03-12T07:58:43;96457.16;;;7.13;60.85
40992;BME280;29633;49.168;9.848;2023-03-12T08:01:08;96443.13;;;7.17;60.89
40992;BME280;29633;49.168;9.848;2023-03-12T08:03:34;96446.22;;;7.22;60.85
40992;BME280;29633;49.168;9.848;2023-03-12T08:06:01;96433.94;;;7.26;60.84
40992;BME280;29633;49.168;9.848;2023-03-12T08:08:27;96444.84;;;7.29;60.80
40992;BME280;29633;49.168;9.848;2023-03-12T08:10:54;96446.50;;;7.30;60.76
40992;BME280;29633;49.168;9.848;2023-03-12T08:13:20;96440.28;;;7.33;60.87
40992;BME280;29633;49.168;9.848;2023-03-12T08:15:48;96442.84;;;7.33;60.89
40992;BME280;29633;49.168;9.848;2023-03-12T08:18:13;96447.09;;;7.34;60.87
40992;BME280;29633;49.168;9.848;2023-03-12T08:20:39;96441.94;;;7.34;60.99
40992;BME280;29633;49.168;9.848;2023-03-12T08:23:05;96437.25;;;7.39;60.82
40992;BME280;29633;49.168;9.848;2023-03-12T08:25:30;96443.81;;;7.43;60.97
40992;BME280;29633;49.168;9.848;2023-03-12T08:27:56;96439.28;;;7.47;60.85
40992;BME280;29633;49.168;9.848;2023-03-12T08:30:22;96435.53;;;7.51;61.01
40992;BME280;29633;49.168;9.848;2023-03-12T08:32:47;96429.31;;;7.53;60.95
40992;BME280;29633;49.168;9.848;2023-03-12T08:35:13;96435.78;;;7.59;60.85
40992;BME280;29633;49.168;9.848;2023-03-12T08:37:39;96440.72;;;7.62;60.92
40992;BME280;29633;49.168;9.848;2023-03-12T08:40:06;96441.31;;;7.65;60.91
40992;BME280;29633;49.168;9.848;2023-03-12T08:42:39;96439.44;;;7.67;60.99
40992;BME280;29633;49.168;9.848;2023-03-12T08:45:05;96431.38;;;7.72;60.95
40992;BME280;29633;49.168;9.848;2023-03-12T08:47:31;96430.44;;;7.73;61.03
40992;BME280;29633;49.168;9.848;2023-03-12T08:49:56;96434.53;;;7.75;60.96
40992;BME280;29633;49.168;9.848;2023-03-12T08:52:22;96426.69;;;7.77;61.10
40992;BME280;29633;49.168;9.848;2023-03-12T08:54:48;96428.13;;;7.81;61.04
40992;BME280;29633;49.168;9.848;2023-03-12T08:57:14;96432.09;;;7.85;61.13
40992;BME280;29633;49.168;9.848;2023-03-12T08:59:40;96419.31;;;7.83;61.15
40992;BME280;29633;49.168;9.848;2023-03-12T09:02:06;96425.16;;;7.85;61.14
40992;BME280;29633;49.168;9.848;2023-03-12T09:04:31;96431.06;;;7.87;61.19
40992;BME280;29633;49.168;9.848;2023-03-12T09:06:59;96437.72;;;7.90;61.14
40992;BME280;29633;49.168;9.848;2023-03-12T09:09:25;96436.81;;;7.91;61.05
40992;BME280;29633;49.168;9.848;2023-03-12T09:11:51;96442.06;;;7.89;61.10
40992;BME280;29633;49.168;9.848;2023-03-12T09:14:16;96447.56;;;7.85;61.18
40992;BME280;29633;49.168;9.848;2023-03-12T09:16:42;96450.50;;;7.80;61.23
40992;BME280;29633;49.168;9.848;2023-03-12T09:19:08;96446.19;;;7.81;61.18
40992;BME280;29633;49.168;9.848;2023-03-12T09:21:33;96441.00;;;7.81;61.43
40992;BME280;29633;49.168;9.848;2023-03-12T09:23:59;96436.44;;;7.84;61.18
40992;BME280;29633;49.168;9.848;2023-03-12T09:26:25;96436.91;;;7.89;61.20
40992;BME280;29633;49.168;9.848;2023-03-12T09:28:50;96439.16;;;7.94;61.33
40992;BME280;29633;49.168;9.848;2023-03-12T09:31:16;96430.25;;;7.98;61.29
40992;BME280;29633;49.168;9.848;2023-03-12T09:33:42;96418.75;;;8.02;61.25
40992;BME280;29633;49.168;9.848;2023-03-12T09:36:07;96426.94;;;8.07;61.09
40992;BME280;29633;49.168;9.848;2023-03-12T09:38:33;96420.84;;;8.08;61.25
40992;BME280;29633;49.168;9.848;2023-03-12T09:41:00;96421.44;;;8.12;61.26
40992;BME280;29633;49.168;9.848;2023-03-12T09:43:42;96418.88;;;8.12;61.43
40992;BME280;29633;49.168;9.848;2023-03-12T09:46:12;96423.94;;;8.13;61.37
40992;BME280;29633;49.168;9.848;2023-03-12T09:48:39;96425.34;;;8.17;61.29
40992;BME280;29633;49.168;9.848;2023-03-12T09:51:30;96424.75;;;8.14;61.29
40992;BME280;29633;49.168;9.848;2023-03-12T09:53:59;96424.50;;;8.17;61.50
40992;BME280;29633;49.168;9.848;2023-03-12T09:56:27;96438.59;;;8.24;61.30
40992;BME280;29633;49.168;9.848;2023-03-12T09:58:54;96428.03;;;8.27;61.52
40992;BME280;29633;49.168;9.848;2023-03-12T10:04:37;96439.44;;;8.24;61.59
40992;BME280;29633;49.168;9.848;2023-03-12T10:07:18;96440.94;;;8.16;61.85
40992;BME280;29633;49.168;9.848;2023-03-12T10:09:54;96442.69;;;8.15;62.08
40992;BME280;29633;49.168;9.848;2023-03-12T10:12:53;96426.38;;;8.15;61.99
40992;BME280;29633;49.168;9.848;2023-03-12T10:15:38;96424.38;;;8.18;62.16
40992;BME280;29633;49.168;9.848;2023-03-12T10:21:10;96426.38;;;8.26;62.25
40992;BME280;29633;49.168;9.848;2023-03-12T10:26:46;96432.59;;;8.23;62.40
40992;BME280;29633;49.168;9.848;2023-03-12T10:29:21;96434.25;;;8.24;62.75
40992;BME280;29633;49.168;9.848;2023-03-12T10:32:11;96436.13;;;8.22;62.52
40992;BME280;29633;49.168;9.848;2023-03-12T10:34:48;96428.50;;;8.21;62.67
40992;BME280;29633;49.168;9.848;2023-03-12T10:37:28;96447.03;;;8.26;62.92
40992;BME280;29633;49.168;9.848;2023-03-12T10:39:56;96444.00;;;8.32;62.76
40992;BME280;29633;49.168;9.848;2023-03-12T10:42:28;96443.56;;;8.38;62.70
40992;BME280;29633;49.168;9.848;2023-03-12T10:45:12;96450.81;;;8.44;62.86
40992;BME280;29633;49.168;9.848;2023-03-12T10:47:43;96449.91;;;8.45;62.76
40992;BME280;29633;49.168;9.848;2023-03-12T10:50:25;96456.72;;;8.46;62.87
40992;BME280;29633;49.168;9.848;2023-03-12T10:53:10;96454.81;;;8.48;62.99
40992;BME280;29633;49.168;9.848;2023-03-12T10:55:37;96448.00;;;8.58;62.94
40992;BME280;29633;49.168;9.848;2023-03-12T10:58:03;96448.72;;;8.60;63.01
40992;BME280;29633;49.168;9.848;2023-03-12T11:00:29;96451.75;;;8.65;63.07
40992;BME280;29633;49.168;9.848;2023-03-12T11:05:34;96456.22;;;8.74;63.22
40992;BME280;29633;49.168;9.848;2023-03-12T11:08:01;96455.97;;;8.77;63.17
40992;BME280;29633;49.168;9.848;2023-03-12T11:13:08;96456.44;;;8.82;63.44
40992;BME280;29633;49.168;9.848;2023-03-12T11:15:45;96459.03;;;8.82;63.64
40992;BME280;29633;49.168;9.848;2023-03-12T11:20:55;96463.72;;;8.88;63.69
40992;BME280;29633;49.168;9.848;2023-03-12T11:23:24;96466.88;;;8.92;63.75
40992;BME280;29633;49.168;9.848;2023-03-12T11:26:02;96471.91;;;8.94;64.06
40992;BME280;29633;49.168;9.848;2023-03-12T11:28:38;96465.69;;;8.96;64.31
40992;BME280;29633;49.168;9.848;2023-03-12T11:31:14;96473.09;;;9.01;63.93
40992;BME280;29633;49.168;9.848;2023-03-12T11:33:43;96466.84;;;9.03;64.30
40992;BME280;29633;49.168;9.848;2023-03-12T11:41:59;96464.69;;;9.19;64.34
40992;BME280;29633;49.168;9.848;2023-03-12T11:44:52;96452.31;;;9.23;64.66
40992;BME280;29633;49.168;9.848;2023-03-12T11:47:38;96454.69;;;9.26;64.60
40992;BME280;29633;49.168;9.848;2023-03-12T11:53:34;96451.25;;;9.36;64.69
40992;BME280;29633;49.168;9.848;2023-03-12T11:56:26;96458.25;;;9.46;64.75
40992;BME280;29633;49.168;9.848;2023-03-12T12:09:57;96453.75;;;9.79;64.67
40992;BME280;29633;49.168;9.848;2023-03-12T12:15:32;96453.22;;;9.85;64.97
40992;BME280;29633;49.168;9.848;2023-03-12T12:23:17;96440.91;;;9.99;65.10
40992;BME280;29633;49.168;9.848;2023-03-12T12:26:03;96437.94;;;10.03;64.97
40992;BME280;29633;49.168;9.848;2023-03-12T12:34:04;96435.59;;;10.21;65.09
40992;BME280;29633;49.168;9.848;2023-03-12T12:36:34;96427.34;;;10.27;65.06
40992;BME280;29633;49.168;9.848;2023-03-12T12:41:32;96420.03;;;10.42;65.30
40992;BME280;29633;49.168;9.848;2023-03-12T12:44:01;96416.34;;;10.44;65.12
40992;BME280;29633;49.168;9.848;2023-03-12T12:46:34;96415.97;;;10.49;65.19
40992;BME280;29633;49.168;9.848;2023-03-12T12:49:08;96410.38;;;10.53;65.34
40992;BME280;29633;49.168;9.848;2023-03-12T12:51:43;96421.56;;;10.54;65.25
40992;BME280;29633;49.168;9.848;2023-03-12T12:54:22;96421.56;;;10.54;65.72
40992;BME280;29633;49.168;9.848;2023-03-12T12:56:53;96417.75;;;10.58;65.55
40992;BME280;29633;49.168;9.848;2023-03-12T12:59:38;96421.59;;;10.63;65.69
40992;BME280;29633;49.168;9.848;2023-03-12T13:02:33;96413.00;;;10.63;65.71
40992;BME280;29633;49.168;9.848;2023-03-12T13:04:58;96413.56;;;10.66;65.66
40992;BME280;29633;49.168;9.848;2023-03-12T13:09:54;96411.41;;;10.81;65.72
40992;BME280;29633;49.168;9.848;2023-03-12T13:15:00;96420.97;;;10.90;65.86
40992;BME280;29633;49.168;9.848;2023-03-12T13:20:33;96416.50;;;11.02;65.88
40992;BME280;29633;49.168;9.848;2023-03-12T13:23:08;96415.00;;;11.09;66.03
40992;BME280;29633;49.168;9.848;2023-03-12T13:33:47;96413.25;;;11.38;65.80
40992;BME280;29633;49.168;9.848;2023-03-12T13:46:47;96400.66;;;11.62;66.14
40992;BME280;29633;49.168;9.848;2023-03-12T13:49:15;96402.56;;;11.70;66.25
40992;BME280;29633;49.168;9.848;2023-03-12T13:51:46;96397.38;;;11.79;66.16
40992;BME280;29633;49.168;9.848;2023-03-12T13:54:18;96402.84;;;11.86;66.30
40992;BME280;29633;49.168;9.848;2023-03-12T13:57:02;96403.91;;;11.93;66.33
40992;BME280;29633;49.168;9.848;2023-03-12T13:59:29;96408.53;;;11.99;66.24
40992;BME280;29633;49.168;9.848;2023-03-12T14:02:01;96414.28;;;12.03;66.19
40992;BME280;29633;49.168;9.848;2023-03-12T14:04:36;96405.78;;;12.10;66.29
40992;BME280;29633;49.168;9.848;2023-03-12T14:10:06;96404.66;;;12.22;66.42
40992;BME280;29633;49.168;9.848;2023-03-12T14:15:17;96395.69;;;12.34;66.35
40992;BME280;29633;49.168;9.848;2023-03-12T14:17:45;96404.72;;;12.40;66.62
40992;BME280;29633;49.168;9.848;2023-03-12T14:20:19;96401.25;;;12.49;66.52
40992;BME280;29633;49.168;9.848;2023-03-12T14:22:50;96395.47;;;12.55;66.44
40992;BME280;29633;49.168;9.848;2023-03-12T14:27:48;96399.00;;;12.64;66.54
40992;BME280;29633;49.168;9.848;2023-03-12T14:32:39;96402.50;;;12.72;66.70
40992;BME280;29633;49.168;9.848;2023-03-12T14:35:25;96414.28;;;12.76;66.82
40992;BME280;29633;49.168;9.848;2023-03-12T14:38:03;96404.91;;;12.83;66.89
40992;BME280;29633;49.168;9.848;2023-03-12T14:43:20;96412.13;;;12.90;67.12
40992;BME280;29633;49.168;9.848;2023-03-12T14:45:49;96408.41;;;12.92;67.24
40992;BME280;29633;49.168;9.848;2023-03-12T14:48:20;96417.84;;;12.93;67.07
40992;BME280;29633;49.168;9.848;2023-03-12T14:50:45;96409.09;;;12.94;67.10
40992;BME280;29633;49.168;9.848;2023-03-12T14:53:19;96414.66;;;12.99;67.00
40992;BME280;29633;49.168;9.848;2023-03-12T14:55:44;96407.25;;;13.04;67.01